sensor_id;sensor_type;location;lat;lon;timestamp;P1;durP1;ratioP1;P2;durP2;ratioP2
56039;SDS011;43937;41.366;2.072;2023-05-10T00:01:57;1.25;;;0.60;;
56039;SDS011;43937;41.366;2.072;2023-05-10T00:04:22;2.60;;;1.08;;
56039;SDS011;43937;41.366;2.072;2023-05-10T00:06:52;1.33;;;1.15;;
56039;SDS011;43937;41.366;2.072;2023-05-10T00:09:18;1.70;;;0.90;;
56039;SDS011;43937;41.366;2.072;2023-05-10T00:11:43;1.35;;;0.80;;
56039;SDS011;43937;41.366;2.072;2023-05-10T00:14:08;7.75;;;1.42;;
56039;SDS011;43937;41.366;2.072;2023-05-10T00:16:34;5.35;;;1.13;;
56039;SDS011;43937;41.366;2.072;2023-05-10T00:18:59;1.70;;;1.23;;
56039;SDS011;43937;41.366;2.072;2023-05-10T00:21:25;0.80;;;0.80;;
56039;SDS011;43937;41.366;2.072;2023-05-10T00:23:50;3.95;;;1.65;;
56039;SDS011;43937;41.366;2.072;2023-05-10T00:26:15;3.50;;;1.20;;
56039;SDS011;43937;41.366;2.072;2023-05-10T00:28:41;1.27;;;0.85;;
56039;SDS011;43937;41.366;2.072;2023-05-10T00:31:07;2.25;;;1.27;;
56039;SDS011;43937;41.366;2.072;2023-05-10T00:33:32;1.83;;;1.40;;
56039;SDS011;43937;41.366;2.072;2023-05-10T00:35:58;1.88;;;1.60;;
56039;SDS011;43937;41.366;2.072;2023-05-10T00:38:48;2.63;;;1.15;;
56039;SDS011;43937;41.366;2.072;2023-05-10T00:41:14;0.82;;;0.82;;
56039;SDS011;43937;41.366;2.072;2023-05-10T00:43:40;1.42;;;0.75;;
56039;SDS011;43937;41.366;2.072;2023-05-10T00:46:06;6.38;;;1.23;;
56039;SDS011;43937;41.366;2.072;2023-05-10T00:48:32;1.20;;;1.10;;
56039;SDS011;43937;41.366;2.072;2023-05-10T00:50:58;0.88;;;0.88;;
56039;SDS011;43937;41.366;2.072;2023-05-10T00:53:24;1.63;;;1.40;;
56039;SDS011;43937;41.366;2.072;2023-05-10T00:55:49;1.85;;;1.25;;
56039;SDS011;43937;41.366;2.072;2023-05-10T00:58:16;2.20;;;1.38;;
56039;SDS011;43937;41.366;2.072;2023-05-10T01:00:42;2.35;;;1.60;;
56039;SDS011;43937;41.366;2.072;2023-05-10T01:03:11;2.40;;;1.17;;
56039;SDS011;43937;41.366;2.072;2023-05-10T01:05:36;1.50;;;1.17;;
56039;SDS011;43937;41.366;2.072;2023-05-10T01:08:02;1.48;;;1.10;;
56039;SDS011;43937;41.366;2.072;2023-05-10T01:10:28;4.15;;;2.00;;
56039;SDS011;43937;41.366;2.072;2023-05-10T01:12:54;1.88;;;1.40;;
56039;SDS011;43937;41.366;2.072;2023-05-10T01:15:19;4.35;;;1.40;;
56039;SDS011;43937;41.366;2.072;2023-05-10T01:17:46;1.63;;;1.48;;
56039;SDS011;43937;41.366;2.072;2023-05-10T01:20:13;0.82;;;0.82;;
56039;SDS011;43937;41.366;2.072;2023-05-10T01:22:44;0.82;;;0.80;;
56039;SDS011;43937;41.366;2.072;2023-05-10T01:34:07;2.10;;;1.17;;
56039;SDS011;43937;41.366;2.072;2023-05-10T01:36:32;1.00;;;0.65;;
56039;SDS011;43937;41.366;2.072;2023-05-10T01:47:11;2.58;;;1.63;;
56039;SDS011;43937;41.366;2.072;2023-05-10T01:49:50;10.80;;;1.63;;
56039;SDS011;43937;41.366;2.072;2023-05-10T01:52:19;3.92;;;1.48;;
56039;SDS011;43937;41.366;2.072;2023-05-10T01:57:32;4.00;;;2.30;;
56039;SDS011;43937;41.366;2.072;2023-05-10T02:00:00;2.38;;;2.00;;
56039;SDS011;43937;41.366;2.072;2023-05-10T02:02:36;2.90;;;1.77;;
56039;SDS011;43937;41.366;2.072;2023-05-10T02:05:04;2.55;;;1.60;;
56039;SDS011;43937;41.366;2.072;2023-05-10T02:07:31;3.83;;;2.10;;
56039;SDS011;43937;41.366;2.072;2023-05-10T02:10:00;4.82;;;2.30;;
56039;SDS011;43937;41.366;2.072;2023-05-10T02:12:28;4.57;;;2.47;;
56039;SDS011;43937;41.366;2.072;2023-05-10T02:14:54;9.55;;;2.35;;
56039;SDS011;43937;41.366;2.072;2023-05-10T02:17:21;2.30;;;1.98;;
56039;SDS011;43937;41.366;2.072;2023-05-10T02:19:48;2.22;;;1.90;;
56039;SDS011;43937;41.366;2.072;2023-05-10T02:22:16;2.17;;;1.90;;
56039;SDS011;43937;41.366;2.072;2023-05-10T02:24:43;6.60;;;2.65;;
56039;SDS011;43937;41.366;2.072;2023-05-10T02:27:10;2.67;;;2.08;;
56039;SDS011;43937;41.366;2.072;2023-05-10T02:29:37;6.00;;;1.70;;
56039;SDS011;43937;41.366;2.072;2023-05-10T02:32:03;1.70;;;1.60;;
56039;SDS011;43937;41.366;2.072;2023-05-10T02:34:29;9.52;;;2.53;;
56039;SDS011;43937;41.366;2.072;2023-05-10T02:36:56;6.93;;;2.67;;
56039;SDS011;43937;41.366;2.072;2023-05-10T02:39:22;5.28;;;2.63;;
56039;SDS011;43937;41.366;2.072;2023-05-10T02:41:49;3.30;;;1.83;;
56039;SDS011;43937;41.366;2.072;2023-05-10T02:44:20;3.83;;;2.55;;
56039;SDS011;43937;41.366;2.072;2023-05-10T02:46:47;4.70;;;2.00;;
56039;SDS011;43937;41.366;2.072;2023-05-10T02:49:13;1.98;;;1.58;;
56039;SDS011;43937;41.366;2.072;2023-05-10T02:51:40;4.50;;;2.55;;
56039;SDS011;43937;41.366;2.072;2023-05-10T02:54:13;6.18;;;2.38;;
56039;SDS011;43937;41.366;2.072;2023-05-10T02:56:47;4.68;;;2.17;;
56039;SDS011;43937;41.366;2.072;2023-05-10T02:59:18;2.55;;;1.75;;
56039;SDS011;43937;41.366;2.072;2023-05-10T03:01:43;1.60;;;1.20;;
56039;SDS011;43937;41.366;2.072;2023-05-10T03:04:09;3.08;;;2.38;;
56039;SDS011;43937;41.366;2.072;2023-05-10T03:06:34;6.50;;;2.15;;
56039;SDS011;43937;41.366;2.072;2023-05-10T03:09:00;3.20;;;2.10;;
56039;SDS011;43937;41.366;2.072;2023-05-10T03:11:43;4.63;;;2.35;;
56039;SDS011;43937;41.366;2.072;2023-05-10T03:18:04;6.45;;;1.90;;
56039;SDS011;43937;41.366;2.072;2023-05-10T03:23:36;2.42;;;1.55;;
56039;SDS011;43937;41.366;2.072;2023-05-10T03:26:24;4.10;;;1.75;;
56039;SDS011;43937;41.366;2.072;2023-05-10T03:28:51;1.80;;;1.63;;
56039;SDS011;43937;41.366;2.072;2023-05-10T03:31:18;1.60;;;1.30;;
56039;SDS011;43937;41.366;2.072;2023-05-10T03:33:49;5.78;;;1.77;;
56039;SDS011;43937;41.366;2.072;2023-05-10T03:36:16;2.60;;;1.73;;
56039;SDS011;43937;41.366;2.072;2023-05-10T03:38:42;2.45;;;1.60;;
56039;SDS011;43937;41.366;2.072;2023-05-10T03:41:07;3.75;;;1.95;;
56039;SDS011;43937;41.366;2.072;2023-05-10T03:43:33;1.88;;;1.67;;
56039;SDS011;43937;41.366;2.072;2023-05-10T03:45:58;2.63;;;1.55;;
56039;SDS011;43937;41.366;2.072;2023-05-10T03:48:26;1.88;;;1.15;;
56039;SDS011;43937;41.366;2.072;2023-05-10T03:50:51;1.48;;;1.05;;
56039;SDS011;43937;41.366;2.072;2023-05-10T03:53:17;4.72;;;1.40;;
56039;SDS011;43937;41.366;2.072;2023-05-10T03:55:42;7.72;;;1.10;;
56039;SDS011;43937;41.366;2.072;2023-05-10T03:58:10;1.55;;;0.82;;
56039;SDS011;43937;41.366;2.072;2023-05-10T04:00:36;0.60;;;0.60;;
56039;SDS011;43937;41.366;2.072;2023-05-10T04:03:02;2.17;;;1.40;;
56039;SDS011;43937;41.366;2.072;2023-05-10T04:05:27;2.72;;;1.15;;
56039;SDS011;43937;41.366;2.072;2023-05-10T04:07:53;1.58;;;0.88;;
56039;SDS011;43937;41.366;2.072;2023-05-10T04:10:18;3.00;;;0.93;;
56039;SDS011;43937;41.366;2.072;2023-05-10T04:12:44;2.00;;;0.77;;
56039;SDS011;43937;41.366;2.072;2023-05-10T04:15:09;2.17;;;1.05;;
56039;SDS011;43937;41.366;2.072;2023-05-10T04:17:35;0.50;;;0.30;;
56039;SDS011;43937;41.366;2.072;2023-05-10T04:20:00;4.32;;;0.70;;
56039;SDS011;43937;41.366;2.072;2023-05-10T04:22:26;1.23;;;0.50;;
56039;SDS011;43937;41.366;2.072;2023-05-10T04:24:54;3.08;;;0.68;;
56039;SDS011;43937;41.366;2.072;2023-05-10T04:27:19;0.45;;;0.20;;
56039;SDS011;43937;41.366;2.072;2023-05-10T04:29:45;0.75;;;0.43;;
56039;SDS011;43937;41.366;2.072;2023-05-10T04:32:10;4.10;;;1.02;;
56039;SDS011;43937;41.366;2.072;2023-05-10T04:34:36;2.38;;;0.50;;
56039;SDS011;43937;41.366;2.072;2023-05-10T04:37:02;6.80;;;0.68;;
56039;SDS011;43937;41.366;2.072;2023-05-10T04:39:27;1.35;;;0.52;;
56039;SDS011;43937;41.366;2.072;2023-05-10T04:41:53;1.67;;;0.38;;
56039;SDS011;43937;41.366;2.072;2023-05-10T04:44:18;4.47;;;0.68;;
56039;SDS011;43937;41.366;2.072;2023-05-10T04:46:43;0.60;;;0.38;;
56039;SDS011;43937;41.366;2.072;2023-05-10T04:49:09;0.90;;;0.45;;
56039;SDS011;43937;41.366;2.072;2023-05-10T04:51:34;0.77;;;0.20;;
56039;SDS011;43937;41.366;2.072;2023-05-10T04:54:00;0.45;;;0.35;;
56039;SDS011;43937;41.366;2.072;2023-05-10T04:56:25;0.90;;;0.55;;
56039;SDS011;43937;41.366;2.072;2023-05-10T04:58:50;0.50;;;0.40;;
56039;SDS011;43937;41.366;2.072;2023-05-10T05:01:16;13.52;;;1.08;;
56039;SDS011;43937;41.366;2.072;2023-05-10T05:03:42;1.08;;;0.50;;
56039;SDS011;43937;41.366;2.072;2023-05-10T05:06:07;2.17;;;0.82;;
56039;SDS011;43937;41.366;2.072;2023-05-10T05:08:33;0.57;;;0.40;;
56039;SDS011;43937;41.366;2.072;2023-05-10T05:10:58;9.50;;;0.57;;
56039;SDS011;43937;41.366;2.072;2023-05-10T05:13:24;0.77;;;0.40;;
56039;SDS011;43937;41.366;2.072;2023-05-10T05:15:49;3.22;;;0.60;;
56039;SDS011;43937;41.366;2.072;2023-05-10T05:18:15;0.70;;;0.30;;
56039;SDS011;43937;41.366;2.072;2023-05-10T05:20:40;1.02;;;0.50;;
56039;SDS011;43937;41.366;2.072;2023-05-10T05:23:06;1.58;;;0.60;;
56039;SDS011;43937;41.366;2.072;2023-05-10T05:25:31;2.17;;;0.73;;
56039;SDS011;43937;41.366;2.072;2023-05-10T05:27:57;2.53;;;0.80;;
56039;SDS011;43937;41.366;2.072;2023-05-10T05:30:22;3.92;;;0.82;;
56039;SDS011;43937;41.366;2.072;2023-05-10T05:32:48;2.47;;;0.93;;
56039;SDS011;43937;41.366;2.072;2023-05-10T05:35:13;0.63;;;0.30;;
56039;SDS011;43937;41.366;2.072;2023-05-10T05:37:39;5.72;;;0.60;;
56039;SDS011;43937;41.366;2.072;2023-05-10T05:40:04;0.88;;;0.28;;
56039;SDS011;43937;41.366;2.072;2023-05-10T05:42:30;0.52;;;0.35;;
56039;SDS011;43937;41.366;2.072;2023-05-10T05:44:56;2.03;;;0.38;;
56039;SDS011;43937;41.366;2.072;2023-05-10T05:47:22;2.33;;;0.68;;
56039;SDS011;43937;41.366;2.072;2023-05-10T05:49:47;4.00;;;0.30;;
56039;SDS011;43937;41.366;2.072;2023-05-10T05:52:13;1.27;;;0.80;;
56039;SDS011;43937;41.366;2.072;2023-05-10T05:54:38;1.15;;;0.60;;
56039;SDS011;43937;41.366;2.072;2023-05-10T05:57:04;1.27;;;0.55;;
56039;SDS011;43937;41.366;2.072;2023-05-10T05:59:29;0.30;;;0.30;;
56039;SDS011;43937;41.366;2.072;2023-05-10T06:01:55;0.70;;;0.40;;
56039;SDS011;43937;41.366;2.072;2023-05-10T06:04:20;2.63;;;0.60;;
56039;SDS011;43937;41.366;2.072;2023-05-10T06:06:46;4.20;;;0.57;;
56039;SDS011;43937;41.366;2.072;2023-05-10T06:09:11;0.88;;;0.60;;
56039;SDS011;43937;41.366;2.072;2023-05-10T06:11:37;1.55;;;0.40;;
56039;SDS011;43937;41.366;2.072;2023-05-10T06:14:03;2.15;;;0.70;;
56039;SDS011;43937;41.366;2.072;2023-05-10T06:16:31;8.05;;;0.80;;
56039;SDS011;43937;41.366;2.072;2023-05-10T06:18:57;8.27;;;0.80;;
56039;SDS011;43937;41.366;2.072;2023-05-10T06:21:22;1.35;;;0.50;;
56039;SDS011;43937;41.366;2.072;2023-05-10T06:23:48;3.83;;;0.55;;
56039;SDS011;43937;41.366;2.072;2023-05-10T06:26:13;3.92;;;0.80;;
56039;SDS011;43937;41.366;2.072;2023-05-10T06:28:39;10.50;;;0.60;;
56039;SDS011;43937;41.366;2.072;2023-05-10T06:31:05;1.17;;;0.40;;
56039;SDS011;43937;41.366;2.072;2023-05-10T06:33:31;0.95;;;0.40;;
56039;SDS011;43937;41.366;2.072;2023-05-10T06:35:57;1.70;;;0.55;;
56039;SDS011;43937;41.366;2.072;2023-05-10T06:38:23;3.92;;;0.82;;
56039;SDS011;43937;41.366;2.072;2023-05-10T06:40:48;2.60;;;0.82;;
56039;SDS011;43937;41.366;2.072;2023-05-10T06:43:14;9.63;;;0.70;;
56039;SDS011;43937;41.366;2.072;2023-05-10T06:45:40;3.13;;;0.70;;
56039;SDS011;43937;41.366;2.072;2023-05-10T06:48:06;5.13;;;0.73;;
56039;SDS011;43937;41.366;2.072;2023-05-10T06:50:31;1.77;;;0.65;;
56039;SDS011;43937;41.366;2.072;2023-05-10T06:52:58;2.10;;;0.98;;
56039;SDS011;43937;41.366;2.072;2023-05-10T06:55:24;1.40;;;0.70;;
56039;SDS011;43937;41.366;2.072;2023-05-10T06:57:49;1.38;;;0.77;;
56039;SDS011;43937;41.366;2.072;2023-05-10T07:00:15;1.35;;;0.70;;
56039;SDS011;43937;41.366;2.072;2023-05-10T07:02:41;3.13;;;0.57;;
56039;SDS011;43937;41.366;2.072;2023-05-10T07:05:07;1.35;;;0.60;;
56039;SDS011;43937;41.366;2.072;2023-05-10T07:07:33;1.48;;;0.50;;
56039;SDS011;43937;41.366;2.072;2023-05-10T07:09:59;1.42;;;0.77;;
56039;SDS011;43937;41.366;2.072;2023-05-10T07:12:25;2.50;;;0.77;;
56039;SDS011;43937;41.366;2.072;2023-05-10T07:15:38;2.67;;;0.73;;
56039;SDS011;43937;41.366;2.072;2023-05-10T07:18:04;1.52;;;0.60;;
56039;SDS011;43937;41.366;2.072;2023-05-10T07:20:31;2.13;;;0.80;;
56039;SDS011;43937;41.366;2.072;2023-05-10T07:22:56;0.85;;;0.65;;
56039;SDS011;43937;41.366;2.072;2023-05-10T07:25:56;1.23;;;0.60;;
56039;SDS011;43937;41.366;2.072;2023-05-10T07:28:23;6.15;;;1.02;;
56039;SDS011;43937;41.366;2.072;2023-05-10T07:30:51;3.03;;;0.95;;
56039;SDS011;43937;41.366;2.072;2023-05-10T07:33:16;0.68;;;0.50;;
56039;SDS011;43937;41.366;2.072;2023-05-10T07:35:42;3.47;;;1.05;;
56039;SDS011;43937;41.366;2.072;2023-05-10T07:38:08;4.75;;;0.88;;
56039;SDS011;43937;41.366;2.072;2023-05-10T07:40:33;2.55;;;0.90;;
56039;SDS011;43937;41.366;2.072;2023-05-10T07:42:59;3.00;;;0.70;;
56039;SDS011;43937;41.366;2.072;2023-05-10T07:45:26;1.85;;;0.80;;
56039;SDS011;43937;41.366;2.072;2023-05-10T07:47:52;1.35;;;0.70;;
56039;SDS011;43937;41.366;2.072;2023-05-10T07:50:17;0.68;;;0.30;;
56039;SDS011;43937;41.366;2.072;2023-05-10T07:52:43;6.72;;;1.40;;
56039;SDS011;43937;41.366;2.072;2023-05-10T07:55:08;0.80;;;0.60;;
56039;SDS011;43937;41.366;2.072;2023-05-10T07:57:34;3.65;;;0.73;;
56039;SDS011;43937;41.366;2.072;2023-05-10T08:00:00;2.50;;;0.60;;
56039;SDS011;43937;41.366;2.072;2023-05-10T08:02:26;0.60;;;0.50;;
56039;SDS011;43937;41.366;2.072;2023-05-10T08:04:51;0.75;;;0.55;;
56039;SDS011;43937;41.366;2.072;2023-05-10T08:07:17;3.25;;;1.15;;
56039;SDS011;43937;41.366;2.072;2023-05-10T08:09:43;1.88;;;0.90;;
56039;SDS011;43937;41.366;2.072;2023-05-10T08:12:09;2.55;;;0.70;;
56039;SDS011;43937;41.366;2.072;2023-05-10T08:14:34;2.47;;;0.93;;
56039;SDS011;43937;41.366;2.072;2023-05-10T08:17:02;1.65;;;0.50;;
56039;SDS011;43937;41.366;2.072;2023-05-10T08:19:28;2.47;;;0.70;;
56039;SDS011;43937;41.366;2.072;2023-05-10T08:21:53;0.95;;;0.50;;
56039;SDS011;43937;41.366;2.072;2023-05-10T08:24:20;7.88;;;0.73;;
56039;SDS011;43937;41.366;2.072;2023-05-10T08:26:46;1.52;;;0.77;;
56039;SDS011;43937;41.366;2.072;2023-05-10T08:30:49;3.22;;;1.50;;
56039;SDS011;43937;41.366;2.072;2023-05-10T08:33:15;2.67;;;1.00;;
56039;SDS011;43937;41.366;2.072;2023-05-10T08:35:42;3.17;;;1.05;;
56039;SDS011;43937;41.366;2.072;2023-05-10T08:38:07;1.20;;;0.65;;
56039;SDS011;43937;41.366;2.072;2023-05-10T08:40:33;2.22;;;0.82;;
56039;SDS011;43937;41.366;2.072;2023-05-10T08:43:08;2.80;;;0.85;;
56039;SDS011;43937;41.366;2.072;2023-05-10T08:45:43;1.10;;;0.80;;
56039;SDS011;43937;41.366;2.072;2023-05-10T08:48:12;1.83;;;1.00;;
56039;SDS011;43937;41.366;2.072;2023-05-10T08:50:38;1.98;;;0.77;;
56039;SDS011;43937;41.366;2.072;2023-05-10T08:53:13;1.83;;;0.80;;
56039;SDS011;43937;41.366;2.072;2023-05-10T08:56:17;4.35;;;1.23;;
56039;SDS011;43937;41.366;2.072;2023-05-10T08:58:43;1.38;;;0.70;;
56039;SDS011;43937;41.366;2.072;2023-05-10T09:01:09;2.75;;;1.20;;
56039;SDS011;43937;41.366;2.072;2023-05-10T09:03:35;1.23;;;0.60;;
56039;SDS011;43937;41.366;2.072;2023-05-10T09:06:03;1.92;;;0.82;;
56039;SDS011;43937;41.366;2.072;2023-05-10T09:08:30;0.38;;;0.32;;
56039;SDS011;43937;41.366;2.072;2023-05-10T09:10:56;1.05;;;0.75;;
56039;SDS011;43937;41.366;2.072;2023-05-10T09:13:22;0.95;;;0.77;;
56039;SDS011;43937;41.366;2.072;2023-05-10T09:15:49;1.05;;;0.73;;
56039;SDS011;43937;41.366;2.072;2023-05-10T09:18:15;1.88;;;0.93;;
56039;SDS011;43937;41.366;2.072;2023-05-10T09:20:40;3.67;;;1.20;;
56039;SDS011;43937;41.366;2.072;2023-05-10T09:23:06;5.35;;;3.38;;
56039;SDS011;43937;41.366;2.072;2023-05-10T09:25:32;0.85;;;0.82;;
56039;SDS011;43937;41.366;2.072;2023-05-10T09:28:00;1.65;;;0.70;;
56039;SDS011;43937;41.366;2.072;2023-05-10T09:30:27;4.38;;;0.82;;
56039;SDS011;43937;41.366;2.072;2023-05-10T09:32:55;6.22;;;0.90;;
56039;SDS011;43937;41.366;2.072;2023-05-10T09:35:23;1.25;;;0.90;;
56039;SDS011;43937;41.366;2.072;2023-05-10T09:37:52;1.45;;;1.02;;
56039;SDS011;43937;41.366;2.072;2023-05-10T09:40:19;3.10;;;1.15;;
56039;SDS011;43937;41.366;2.072;2023-05-10T09:42:53;0.90;;;0.50;;
56039;SDS011;43937;41.366;2.072;2023-05-10T09:45:27;19.73;;;0.80;;
56039;SDS011;43937;41.366;2.072;2023-05-10T09:47:54;6.15;;;0.80;;
56039;SDS011;43937;41.366;2.072;2023-05-10T09:50:20;5.53;;;0.95;;
56039;SDS011;43937;41.366;2.072;2023-05-10T09:52:51;1.27;;;0.52;;
56039;SDS011;43937;41.366;2.072;2023-05-10T09:55:18;2.53;;;0.80;;
56039;SDS011;43937;41.366;2.072;2023-05-10T09:57:46;2.00;;;1.02;;
56039;SDS011;43937;41.366;2.072;2023-05-10T10:00:17;21.48;;;1.55;;
56039;SDS011;43937;41.366;2.072;2023-05-10T10:02:45;3.20;;;1.40;;
56039;SDS011;43937;41.366;2.072;2023-05-10T10:05:11;1.90;;;1.00;;
56039;SDS011;43937;41.366;2.072;2023-05-10T10:07:37;2.15;;;1.08;;
56039;SDS011;43937;41.366;2.072;2023-05-10T10:10:02;4.10;;;1.60;;
56039;SDS011;43937;41.366;2.072;2023-05-10T10:13:01;3.30;;;1.10;;
56039;SDS011;43937;41.366;2.072;2023-05-10T10:15:27;2.80;;;1.30;;
56039;SDS011;43937;41.366;2.072;2023-05-10T10:17:52;3.88;;;1.20;;
56039;SDS011;43937;41.366;2.072;2023-05-10T10:20:19;2.55;;;1.23;;
56039;SDS011;43937;41.366;2.072;2023-05-10T10:22:46;2.33;;;1.20;;
56039;SDS011;43937;41.366;2.072;2023-05-10T10:25:13;3.92;;;1.60;;
56039;SDS011;43937;41.366;2.072;2023-05-10T10:30:29;1.85;;;1.10;;
56039;SDS011;43937;41.366;2.072;2023-05-10T10:36:44;3.15;;;1.27;;
56039;SDS011;43937;41.366;2.072;2023-05-10T10:39:11;3.35;;;1.15;;
56039;SDS011;43937;41.366;2.072;2023-05-10T10:42:43;7.70;;;1.95;;
56039;SDS011;43937;41.366;2.072;2023-05-10T10:45:13;9.17;;;2.93;;
56039;SDS011;43937;41.366;2.072;2023-05-10T10:47:38;4.18;;;1.83;;
56039;SDS011;43937;41.366;2.072;2023-05-10T10:50:05;1.42;;;1.27;;
56039;SDS011;43937;41.366;2.072;2023-05-10T10:52:33;4.35;;;1.58;;
56039;SDS011;43937;41.366;2.072;2023-05-10T10:55:01;4.03;;;1.33;;
56039;SDS011;43937;41.366;2.072;2023-05-10T11:05:36;3.25;;;1.42;;
56039;SDS011;43937;41.366;2.072;2023-05-10T11:08:07;2.53;;;1.40;;
56039;SDS011;43937;41.366;2.072;2023-05-10T11:10:35;12.43;;;1.25;;
56039;SDS011;43937;41.366;2.072;2023-05-10T11:13:01;2.38;;;1.25;;
56039;SDS011;43937;41.366;2.072;2023-05-10T11:15:39;3.25;;;1.00;;
56039;SDS011;43937;41.366;2.072;2023-05-10T11:20:46;3.33;;;1.13;;
56039;SDS011;43937;41.366;2.072;2023-05-10T11:23:15;7.10;;;2.00;;
56039;SDS011;43937;41.366;2.072;2023-05-10T11:25:43;1.20;;;0.93;;
56039;SDS011;43937;41.366;2.072;2023-05-10T11:28:09;6.03;;;1.38;;
56039;SDS011;43937;41.366;2.072;2023-05-10T11:30:36;13.30;;;2.22;;
56039;SDS011;43937;41.366;2.072;2023-05-10T11:33:03;3.28;;;1.17;;
56039;SDS011;43937;41.366;2.072;2023-05-10T11:35:29;5.03;;;1.50;;
56039;SDS011;43937;41.366;2.072;2023-05-10T11:37:54;15.35;;;1.08;;
56039;SDS011;43937;41.366;2.072;2023-05-10T11:40:23;10.95;;;1.35;;
56039;SDS011;43937;41.366;2.072;2023-05-10T11:42:49;3.30;;;1.63;;
56039;SDS011;43937;41.366;2.072;2023-05-10T11:45:15;3.13;;;1.10;;
56039;SDS011;43937;41.366;2.072;2023-05-10T11:48:07;4.18;;;1.42;;
56039;SDS011;43937;41.366;2.072;2023-05-10T11:50:32;2.65;;;1.48;;
56039;SDS011;43937;41.366;2.072;2023-05-10T11:52:58;6.47;;;1.50;;
56039;SDS011;43937;41.366;2.072;2023-05-10T11:55:23;6.40;;;1.20;;
56039;SDS011;43937;41.366;2.072;2023-05-10T11:57:52;9.23;;;1.40;;
56039;SDS011;43937;41.366;2.072;2023-05-10T12:00:19;3.55;;;0.98;;
56039;SDS011;43937;41.366;2.072;2023-05-10T12:02:48;3.75;;;1.33;;
56039;SDS011;43937;41.366;2.072;2023-05-10T12:05:20;7.32;;;1.45;;
56039;SDS011;43937;41.366;2.072;2023-05-10T12:07:45;16.17;;;1.65;;
56039;SDS011;43937;41.366;2.072;2023-05-10T12:10:11;2.22;;;1.08;;
56039;SDS011;43937;41.366;2.072;2023-05-10T12:12:46;4.27;;;1.43;;
56039;SDS011;43937;41.366;2.072;2023-05-10T12:19:22;6.10;;;1.70;;
56039;SDS011;43937;41.366;2.072;2023-05-10T12:21:47;7.88;;;1.42;;
56039;SDS011;43937;41.366;2.072;2023-05-10T12:24:13;2.28;;;1.10;;
56039;SDS011;43937;41.366;2.072;2023-05-10T12:26:42;5.65;;;1.50;;
56039;SDS011;43937;41.366;2.072;2023-05-10T12:29:19;3.45;;;1.25;;
56039;SDS011;43937;41.366;2.072;2023-05-10T12:31:55;5.20;;;1.35;;
56039;SDS011;43937;41.366;2.072;2023-05-10T12:34:31;8.52;;;1.55;;
56039;SDS011;43937;41.366;2.072;2023-05-10T12:37:12;2.08;;;0.77;;
56039;SDS011;43937;41.366;2.072;2023-05-10T12:39:38;1.25;;;0.57;;
56039;SDS011;43937;41.366;2.072;2023-05-10T12:42:05;4.32;;;1.45;;
56039;SDS011;43937;41.366;2.072;2023-05-10T12:44:31;3.33;;;0.98;;
56039;SDS011;43937;41.366;2.072;2023-05-10T12:46:56;2.60;;;1.08;;
56039;SDS011;43937;41.366;2.072;2023-05-10T12:49:22;4.88;;;1.00;;
56039;SDS011;43937;41.366;2.072;2023-05-10T12:51:48;2.97;;;0.88;;
56039;SDS011;43937;41.366;2.072;2023-05-10T12:54:13;2.85;;;0.95;;
56039;SDS011;43937;41.366;2.072;2023-05-10T12:56:39;32.53;;;1.52;;
56039;SDS011;43937;41.366;2.072;2023-05-10T12:59:05;4.95;;;1.08;;
56039;SDS011;43937;41.366;2.072;2023-05-10T13:01:31;13.30;;;1.45;;
56039;SDS011;43937;41.366;2.072;2023-05-10T13:03:56;11.35;;;1.10;;
56039;SDS011;43937;41.366;2.072;2023-05-10T13:06:22;2.40;;;0.90;;
56039;SDS011;43937;41.366;2.072;2023-05-10T13:08:47;6.10;;;1.52;;
56039;SDS011;43937;41.366;2.072;2023-05-10T13:11:13;4.05;;;1.23;;
56039;SDS011;43937;41.366;2.072;2023-05-10T13:13:41;1.83;;;0.75;;
56039;SDS011;43937;41.366;2.072;2023-05-10T13:16:07;4.50;;;1.02;;
56039;SDS011;43937;41.366;2.072;2023-05-10T13:18:32;17.95;;;1.27;;
56039;SDS011;43937;41.366;2.072;2023-05-10T13:20:58;10.93;;;1.50;;
56039;SDS011;43937;41.366;2.072;2023-05-10T13:23:23;7.22;;;1.20;;
56039;SDS011;43937;41.366;2.072;2023-05-10T13:25:49;2.80;;;0.80;;
56039;SDS011;43937;41.366;2.072;2023-05-10T13:28:16;5.22;;;1.33;;
56039;SDS011;43937;41.366;2.072;2023-05-10T13:30:41;2.47;;;0.75;;
56039;SDS011;43937;41.366;2.072;2023-05-10T13:33:06;2.88;;;1.02;;
56039;SDS011;43937;41.366;2.072;2023-05-10T13:35:32;1.67;;;0.70;;
56039;SDS011;43937;41.366;2.072;2023-05-10T13:39:53;6.82;;;1.55;;
56039;SDS011;43937;41.366;2.072;2023-05-10T13:42:38;3.92;;;1.08;;
56039;SDS011;43937;41.366;2.072;2023-05-10T13:45:04;3.92;;;1.25;;
56039;SDS011;43937;41.366;2.072;2023-05-10T13:47:30;2.15;;;0.95;;
56039;SDS011;43937;41.366;2.072;2023-05-10T13:49:56;1.95;;;0.93;;
56039;SDS011;43937;41.366;2.072;2023-05-10T13:52:22;2.53;;;0.93;;
56039;SDS011;43937;41.366;2.072;2023-05-10T13:54:47;2.25;;;0.80;;
56039;SDS011;43937;41.366;2.072;2023-05-10T13:57:13;6.70;;;1.25;;
56039;SDS011;43937;41.366;2.072;2023-05-10T13:59:39;3.13;;;0.88;;
56039;SDS011;43937;41.366;2.072;2023-05-10T14:02:05;2.47;;;1.00;;
56039;SDS011;43937;41.366;2.072;2023-05-10T14:04:31;1.27;;;0.73;;
56039;SDS011;43937;41.366;2.072;2023-05-10T14:06:56;2.78;;;0.65;;
56039;SDS011;43937;41.366;2.072;2023-05-10T14:09:22;5.05;;;1.05;;
56039;SDS011;43937;41.366;2.072;2023-05-10T14:11:48;24.80;;;1.15;;
56039;SDS011;43937;41.366;2.072;2023-05-10T14:14:13;2.65;;;0.90;;
56039;SDS011;43937;41.366;2.072;2023-05-10T14:16:42;2.53;;;1.15;;
56039;SDS011;43937;41.366;2.072;2023-05-10T14:19:09;5.03;;;1.02;;
56039;SDS011;43937;41.366;2.072;2023-05-10T14:21:35;5.70;;;1.50;;
56039;SDS011;43937;41.366;2.072;2023-05-10T14:24:00;4.15;;;1.23;;
56039;SDS011;43937;41.366;2.072;2023-05-10T14:26:26;5.68;;;1.20;;
56039;SDS011;43937;41.366;2.072;2023-05-10T14:28:52;3.33;;;1.23;;
56039;SDS011;43937;41.366;2.072;2023-05-10T14:31:17;2.25;;;0.75;;
56039;SDS011;43937;41.366;2.072;2023-05-10T14:33:45;2.47;;;1.05;;
56039;SDS011;43937;41.366;2.072;2023-05-10T14:36:11;4.57;;;1.02;;
56039;SDS011;43937;41.366;2.072;2023-05-10T14:38:36;5.68;;;1.63;;
56039;SDS011;43937;41.366;2.072;2023-05-10T14:43:10;6.85;;;1.48;;
56039;SDS011;43937;41.366;2.072;2023-05-10T14:45:36;6.03;;;1.10;;
56039;SDS011;43937;41.366;2.072;2023-05-10T14:48:01;3.22;;;0.95;;
56039;SDS011;43937;41.366;2.072;2023-05-10T14:50:29;2.58;;;1.00;;
56039;SDS011;43937;41.366;2.072;2023-05-10T14:52:55;1.48;;;0.85;;
56039;SDS011;43937;41.366;2.072;2023-05-10T14:55:21;2.50;;;0.90;;
56039;SDS011;43937;41.366;2.072;2023-05-10T14:57:46;13.77;;;1.13;;
56039;SDS011;43937;41.366;2.072;2023-05-10T15:00:14;5.13;;;1.58;;
56039;SDS011;43937;41.366;2.072;2023-05-10T15:02:40;2.05;;;0.85;;
56039;SDS011;43937;41.366;2.072;2023-05-10T15:05:06;7.63;;;1.05;;
56039;SDS011;43937;41.366;2.072;2023-05-10T15:07:32;5.22;;;1.23;;
56039;SDS011;43937;41.366;2.072;2023-05-10T15:09:57;3.40;;;1.17;;
56039;SDS011;43937;41.366;2.072;2023-05-10T15:12:23;3.20;;;1.08;;
56039;SDS011;43937;41.366;2.072;2023-05-10T15:14:48;3.60;;;1.17;;
56039;SDS011;43937;41.366;2.072;2023-05-10T15:17:14;4.45;;;1.50;;
56039;SDS011;43937;41.366;2.072;2023-05-10T15:19:39;7.85;;;1.67;;
56039;SDS011;43937;41.366;2.072;2023-05-10T15:22:05;4.32;;;1.20;;
56039;SDS011;43937;41.366;2.072;2023-05-10T15:24:30;2.28;;;1.00;;
56039;SDS011;43937;41.366;2.072;2023-05-10T15:26:56;2.33;;;1.00;;
56039;SDS011;43937;41.366;2.072;2023-05-10T15:29:22;8.25;;;1.20;;
56039;SDS011;43937;41.366;2.072;2023-05-10T15:33:50;8.23;;;1.70;;
56039;SDS011;43937;41.366;2.072;2023-05-10T15:36:16;6.63;;;1.55;;
56039;SDS011;43937;41.366;2.072;2023-05-10T15:40:21;4.13;;;1.00;;
56039;SDS011;43937;41.366;2.072;2023-05-10T15:42:46;6.70;;;1.60;;
56039;SDS011;43937;41.366;2.072;2023-05-10T15:45:12;5.32;;;1.50;;
56039;SDS011;43937;41.366;2.072;2023-05-10T15:47:38;2.10;;;1.08;;